Egg Harbor Township, NJ (08234)

7:56 AM EDT on September 05, 2015 (GMT -0400)
Egg Harbor Township | | Change Station
CLOSE
Current Station
Personal Weather Station
Location: Egg Harbor Township, NJ
Elevation: 89 ft
Nearby Weather Stations

Elev 89 ft 39.41 °N, 74.64 °W | Updated 14 minutes ago

Partly Cloudy
Partly Cloudy
72.5 °F
Feels Like 74 °F
N
3.6
Wind Variable Wind from NE

Today
High -- | Low -- °F
--% Chance of Precip.
Yesterday
High -- | Low -- °F
Precip. -- in
6:30 AM 7:23 PM
Waning Gibbous, 49% visible
Pressure 30.22 in
Visibility 10.0 miles
Clouds Few 2000 ft
Heat Index 74 °F
Dew Point 64 °F
Humidity 74%
Rainfall 0.00 in
Snow Depth Not available.
UV 1 out of 12
Pollen 9.80 out of 12
Air Quality Not available.
Flu Activity Not available.
METAR KACY 051154Z 04009KT 10SM FEW020 22/18 A3022 RMK AO2 SLP232 T02220183 10233 20211 51012
Pressure 30.22 in
Visibility 10.0 miles
Clouds Few 2000 ft
Heat Index 74 °F
Dew Point 64 °F
Humidity 74%
Rainfall 0.00 in
Snow Depth Not available.
UV 1 out of 12
Pollen 9.80 out of 12
Air Quality Not available.
Flu Activity Not available.
METAR KACY 051154Z 04009KT 10SM FEW020 22/18 A3022 RMK AO2 SLP232 T02220183 10233 20211 51012

10-Day Weather Forecast

×

Almanac

Astronomy

Sep. 05, 2015 Rise Set
Actual Time
Civil Twilight
Nautical Twilight
Astronomical Twilight
Moon
Length of Visible Light
Length of Day
Tomorrow will be .
, % of the Moon is Illuminated

Today's Extremes

State Highs State Lows

Community

WunderPhotos

Upload Photos

1,852,449 photos uploaded!

WunderBlogs® & News

Nearby

Air Quality

  Air Quality AQ Index Pollutant
Not available.

Snow Depth

Station Depth Elevation

Earthquake Activity

City Distance Mag. Time & Date
Minimum magnitude displayed is 2.5.

Coastal Water Temperatures

Place Temperature

Stations

Nearby Weather Stations

Station Location Temp. Windchill Dew Point Humidity Wind Precip. Elev Updated Type